sensor_id;sensor_type;location;lat;lon;timestamp;P1;durP1;ratioP1;P2;durP2;ratioP2
64907;SDS011;69061;52.236;5.188;2024-02-04T00:01:20;21.30;;;8.38;;
64907;SDS011;69061;52.236;5.188;2024-02-04T00:03:48;14.00;;;6.97;;
64907;SDS011;69061;52.236;5.188;2024-02-04T00:06:15;14.70;;;6.35;;
64907;SDS011;69061;52.236;5.188;2024-02-04T00:08:41;12.43;;;6.13;;
64907;SDS011;69061;52.236;5.188;2024-02-04T00:11:08;14.48;;;6.55;;
64907;SDS011;69061;52.236;5.188;2024-02-04T00:13:36;11.98;;;6.43;;
64907;SDS011;69061;52.236;5.188;2024-02-04T00:16:03;15.35;;;7.72;;
64907;SDS011;69061;52.236;5.188;2024-02-04T00:18:30;18.77;;;7.90;;
64907;SDS011;69061;52.236;5.188;2024-02-04T00:20:59;19.88;;;10.18;;
64907;SDS011;69061;52.236;5.188;2024-02-04T00:23:25;20.60;;;9.20;;
64907;SDS011;69061;52.236;5.188;2024-02-04T00:25:52;19.77;;;8.95;;
64907;SDS011;69061;52.236;5.188;2024-02-04T00:28:19;26.95;;;10.48;;
64907;SDS011;69061;52.236;5.188;2024-02-04T00:30:46;20.52;;;9.48;;
64907;SDS011;69061;52.236;5.188;2024-02-04T00:33:14;22.20;;;11.23;;
64907;SDS011;69061;52.236;5.188;2024-02-04T00:35:41;24.00;;;11.13;;
64907;SDS011;69061;52.236;5.188;2024-02-04T00:38:09;29.15;;;13.15;;
64907;SDS011;69061;52.236;5.188;2024-02-04T00:40:36;31.90;;;13.32;;
64907;SDS011;69061;52.236;5.188;2024-02-04T00:43:03;35.53;;;14.20;;
64907;SDS011;69061;52.236;5.188;2024-02-04T00:45:29;37.10;;;15.25;;
64907;SDS011;69061;52.236;5.188;2024-02-04T00:47:56;45.58;;;16.33;;
64907;SDS011;69061;52.236;5.188;2024-02-04T00:50:23;47.28;;;16.88;;
64907;SDS011;69061;52.236;5.188;2024-02-04T00:52:49;51.58;;;15.82;;
64907;SDS011;69061;52.236;5.188;2024-02-04T00:55:19;55.15;;;20.33;;
64907;SDS011;69061;52.236;5.188;2024-02-04T00:57:46;55.83;;;18.17;;
64907;SDS011;69061;52.236;5.188;2024-02-04T01:00:13;57.40;;;19.65;;
64907;SDS011;69061;52.236;5.188;2024-02-04T01:02:40;55.85;;;20.00;;
64907;SDS011;69061;52.236;5.188;2024-02-04T01:05:07;49.03;;;17.40;;
64907;SDS011;69061;52.236;5.188;2024-02-04T01:07:34;40.25;;;17.02;;
64907;SDS011;69061;52.236;5.188;2024-02-04T01:10:00;47.53;;;16.83;;
64907;SDS011;69061;52.236;5.188;2024-02-04T01:12:29;49.95;;;17.30;;
64907;SDS011;69061;52.236;5.188;2024-02-04T01:14:55;56.80;;;18.98;;
64907;SDS011;69061;52.236;5.188;2024-02-04T01:17:22;51.85;;;16.58;;
64907;SDS011;69061;52.236;5.188;2024-02-04T01:19:50;48.67;;;19.55;;
64907;SDS011;69061;52.236;5.188;2024-02-04T01:22:16;48.70;;;18.38;;
64907;SDS011;69061;52.236;5.188;2024-02-04T01:24:43;47.53;;;15.00;;
64907;SDS011;69061;52.236;5.188;2024-02-04T01:27:10;41.55;;;16.95;;
64907;SDS011;69061;52.236;5.188;2024-02-04T01:29:37;35.50;;;14.85;;
64907;SDS011;69061;52.236;5.188;2024-02-04T01:32:04;38.88;;;13.93;;
64907;SDS011;69061;52.236;5.188;2024-02-04T01:34:31;34.42;;;13.88;;
64907;SDS011;69061;52.236;5.188;2024-02-04T01:36:58;33.15;;;12.75;;
64907;SDS011;69061;52.236;5.188;2024-02-04T01:39:24;35.15;;;13.13;;
64907;SDS011;69061;52.236;5.188;2024-02-04T01:41:51;25.90;;;11.30;;
64907;SDS011;69061;52.236;5.188;2024-02-04T01:44:18;34.70;;;12.10;;
64907;SDS011;69061;52.236;5.188;2024-02-04T01:46:47;31.65;;;10.57;;
64907;SDS011;69061;52.236;5.188;2024-02-04T01:49:14;28.88;;;10.18;;
64907;SDS011;69061;52.236;5.188;2024-02-04T01:51:41;26.30;;;9.60;;
64907;SDS011;69061;52.236;5.188;2024-02-04T01:54:08;39.38;;;10.32;;
64907;SDS011;69061;52.236;5.188;2024-02-04T01:56:35;23.90;;;7.35;;
64907;SDS011;69061;52.236;5.188;2024-02-04T01:59:02;25.45;;;8.82;;
64907;SDS011;69061;52.236;5.188;2024-02-04T02:01:29;25.05;;;8.15;;
64907;SDS011;69061;52.236;5.188;2024-02-04T02:03:58;28.02;;;8.85;;
64907;SDS011;69061;52.236;5.188;2024-02-04T02:06:27;22.73;;;7.43;;
64907;SDS011;69061;52.236;5.188;2024-02-04T02:08:53;19.05;;;7.45;;
64907;SDS011;69061;52.236;5.188;2024-02-04T02:11:40;30.33;;;9.00;;
64907;SDS011;69061;52.236;5.188;2024-02-04T02:14:08;24.60;;;8.27;;
64907;SDS011;69061;52.236;5.188;2024-02-04T02:16:39;23.00;;;7.32;;
64907;SDS011;69061;52.236;5.188;2024-02-04T02:19:11;28.95;;;8.40;;
64907;SDS011;69061;52.236;5.188;2024-02-04T02:21:52;20.80;;;7.70;;
64907;SDS011;69061;52.236;5.188;2024-02-04T02:24:32;23.83;;;8.02;;
64907;SDS011;69061;52.236;5.188;2024-02-04T02:27:00;22.58;;;7.93;;
64907;SDS011;69061;52.236;5.188;2024-02-04T02:29:26;20.88;;;8.38;;
64907;SDS011;69061;52.236;5.188;2024-02-04T02:31:53;23.95;;;7.93;;
64907;SDS011;69061;52.236;5.188;2024-02-04T02:34:20;22.90;;;9.10;;
64907;SDS011;69061;52.236;5.188;2024-02-04T02:36:49;18.02;;;7.50;;
64907;SDS011;69061;52.236;5.188;2024-02-04T02:39:23;17.05;;;7.20;;
64907;SDS011;69061;52.236;5.188;2024-02-04T02:41:55;15.95;;;7.60;;
64907;SDS011;69061;52.236;5.188;2024-02-04T02:44:25;23.48;;;7.53;;
64907;SDS011;69061;52.236;5.188;2024-02-04T02:46:53;20.92;;;8.10;;
64907;SDS011;69061;52.236;5.188;2024-02-04T02:49:22;18.58;;;7.72;;
64907;SDS011;69061;52.236;5.188;2024-02-04T02:51:49;19.83;;;7.47;;
64907;SDS011;69061;52.236;5.188;2024-02-04T02:54:15;20.08;;;7.07;;
64907;SDS011;69061;52.236;5.188;2024-02-04T02:56:42;21.08;;;8.60;;
64907;SDS011;69061;52.236;5.188;2024-02-04T02:59:10;26.40;;;9.27;;
64907;SDS011;69061;52.236;5.188;2024-02-04T03:01:38;26.10;;;8.30;;
64907;SDS011;69061;52.236;5.188;2024-02-04T03:04:06;27.75;;;9.25;;
64907;SDS011;69061;52.236;5.188;2024-02-04T03:06:33;28.17;;;10.38;;
64907;SDS011;69061;52.236;5.188;2024-02-04T03:08:59;34.35;;;11.20;;
64907;SDS011;69061;52.236;5.188;2024-02-04T03:11:26;35.95;;;10.93;;
64907;SDS011;69061;52.236;5.188;2024-02-04T03:13:52;23.70;;;9.90;;
64907;SDS011;69061;52.236;5.188;2024-02-04T03:16:20;26.88;;;10.18;;
64907;SDS011;69061;52.236;5.188;2024-02-04T03:18:47;38.88;;;11.23;;
64907;SDS011;69061;52.236;5.188;2024-02-04T03:21:14;31.58;;;12.70;;
64907;SDS011;69061;52.236;5.188;2024-02-04T03:23:42;34.90;;;12.18;;
64907;SDS011;69061;52.236;5.188;2024-02-04T03:26:09;33.60;;;10.43;;
64907;SDS011;69061;52.236;5.188;2024-02-04T03:28:35;29.90;;;10.18;;
64907;SDS011;69061;52.236;5.188;2024-02-04T03:31:02;36.05;;;10.95;;
64907;SDS011;69061;52.236;5.188;2024-02-04T03:33:31;35.70;;;10.77;;
64907;SDS011;69061;52.236;5.188;2024-02-04T03:36:00;31.20;;;12.73;;
64907;SDS011;69061;52.236;5.188;2024-02-04T03:38:27;23.90;;;9.32;;
64907;SDS011;69061;52.236;5.188;2024-02-04T03:40:54;22.38;;;9.02;;
64907;SDS011;69061;52.236;5.188;2024-02-04T03:43:20;27.67;;;8.73;;
64907;SDS011;69061;52.236;5.188;2024-02-04T03:45:47;26.02;;;8.85;;
64907;SDS011;69061;52.236;5.188;2024-02-04T03:48:13;27.00;;;8.30;;
64907;SDS011;69061;52.236;5.188;2024-02-04T03:50:42;29.02;;;8.70;;
64907;SDS011;69061;52.236;5.188;2024-02-04T03:53:09;24.35;;;6.97;;
64907;SDS011;69061;52.236;5.188;2024-02-04T03:55:36;22.33;;;7.00;;
64907;SDS011;69061;52.236;5.188;2024-02-04T03:58:02;25.13;;;8.10;;
64907;SDS011;69061;52.236;5.188;2024-02-04T04:00:28;22.50;;;7.75;;
64907;SDS011;69061;52.236;5.188;2024-02-04T04:02:55;24.20;;;5.72;;
64907;SDS011;69061;52.236;5.188;2024-02-04T04:05:21;20.25;;;6.35;;
64907;SDS011;69061;52.236;5.188;2024-02-04T04:07:50;18.92;;;5.70;;
64907;SDS011;69061;52.236;5.188;2024-02-04T04:10:16;20.48;;;6.82;;
64907;SDS011;69061;52.236;5.188;2024-02-04T04:12:43;14.88;;;5.20;;
64907;SDS011;69061;52.236;5.188;2024-02-04T04:15:10;24.30;;;5.80;;
64907;SDS011;69061;52.236;5.188;2024-02-04T04:17:36;24.85;;;5.70;;
64907;SDS011;69061;52.236;5.188;2024-02-04T04:20:03;18.58;;;5.07;;
64907;SDS011;69061;52.236;5.188;2024-02-04T04:22:30;14.98;;;4.97;;
64907;SDS011;69061;52.236;5.188;2024-02-04T04:24:58;15.07;;;5.18;;
64907;SDS011;69061;52.236;5.188;2024-02-04T04:27:25;18.58;;;6.22;;
64907;SDS011;69061;52.236;5.188;2024-02-04T04:29:52;23.75;;;5.53;;
64907;SDS011;69061;52.236;5.188;2024-02-04T04:32:18;29.67;;;7.28;;
64907;SDS011;69061;52.236;5.188;2024-02-04T04:34:45;25.15;;;6.93;;
64907;SDS011;69061;52.236;5.188;2024-02-04T04:37:11;23.00;;;6.53;;
64907;SDS011;69061;52.236;5.188;2024-02-04T04:39:38;24.35;;;7.07;;
64907;SDS011;69061;52.236;5.188;2024-02-04T04:42:06;25.38;;;6.80;;
64907;SDS011;69061;52.236;5.188;2024-02-04T04:44:33;19.35;;;6.85;;
64907;SDS011;69061;52.236;5.188;2024-02-04T04:47:00;25.67;;;8.23;;
64907;SDS011;69061;52.236;5.188;2024-02-04T04:49:26;21.77;;;6.93;;
64907;SDS011;69061;52.236;5.188;2024-02-04T04:51:53;21.33;;;7.38;;
64907;SDS011;69061;52.236;5.188;2024-02-04T04:54:22;28.95;;;7.55;;
64907;SDS011;69061;52.236;5.188;2024-02-04T04:56:49;23.67;;;7.60;;
64907;SDS011;69061;52.236;5.188;2024-02-04T04:59:17;33.67;;;7.15;;
64907;SDS011;69061;52.236;5.188;2024-02-04T05:01:46;23.67;;;8.63;;
64907;SDS011;69061;52.236;5.188;2024-02-04T05:04:13;25.95;;;7.20;;
64907;SDS011;69061;52.236;5.188;2024-02-04T05:06:40;20.42;;;6.88;;
64907;SDS011;69061;52.236;5.188;2024-02-04T05:09:07;22.08;;;6.88;;
64907;SDS011;69061;52.236;5.188;2024-02-04T05:11:37;25.85;;;7.30;;
64907;SDS011;69061;52.236;5.188;2024-02-04T05:14:04;26.00;;;8.02;;
64907;SDS011;69061;52.236;5.188;2024-02-04T05:16:32;25.45;;;7.00;;
64907;SDS011;69061;52.236;5.188;2024-02-04T05:19:00;25.48;;;6.80;;
64907;SDS011;69061;52.236;5.188;2024-02-04T05:21:27;26.83;;;7.78;;
64907;SDS011;69061;52.236;5.188;2024-02-04T05:23:54;25.42;;;6.95;;
64907;SDS011;69061;52.236;5.188;2024-02-04T05:26:20;18.60;;;6.10;;
64907;SDS011;69061;52.236;5.188;2024-02-04T05:28:47;31.58;;;8.48;;
64907;SDS011;69061;52.236;5.188;2024-02-04T05:31:14;27.77;;;7.75;;
64907;SDS011;69061;52.236;5.188;2024-02-04T05:33:42;18.67;;;7.38;;
64907;SDS011;69061;52.236;5.188;2024-02-04T05:36:09;26.98;;;8.05;;
64907;SDS011;69061;52.236;5.188;2024-02-04T05:38:36;25.42;;;6.53;;
64907;SDS011;69061;52.236;5.188;2024-02-04T05:41:03;24.75;;;8.07;;
64907;SDS011;69061;52.236;5.188;2024-02-04T05:43:30;28.20;;;7.03;;
64907;SDS011;69061;52.236;5.188;2024-02-04T05:45:56;26.27;;;8.35;;
64907;SDS011;69061;52.236;5.188;2024-02-04T05:48:23;23.77;;;7.55;;
64907;SDS011;69061;52.236;5.188;2024-02-04T05:50:51;24.27;;;8.93;;
64907;SDS011;69061;52.236;5.188;2024-02-04T05:53:17;23.33;;;8.23;;
64907;SDS011;69061;52.236;5.188;2024-02-04T05:55:46;28.17;;;9.35;;
64907;SDS011;69061;52.236;5.188;2024-02-04T05:58:13;39.08;;;9.90;;
64907;SDS011;69061;52.236;5.188;2024-02-04T06:00:40;19.75;;;7.32;;
64907;SDS011;69061;52.236;5.188;2024-02-04T06:03:07;24.55;;;7.72;;
64907;SDS011;69061;52.236;5.188;2024-02-04T06:05:33;19.27;;;7.78;;
64907;SDS011;69061;52.236;5.188;2024-02-04T06:08:01;20.55;;;7.13;;
64907;SDS011;69061;52.236;5.188;2024-02-04T06:10:28;32.35;;;8.27;;
64907;SDS011;69061;52.236;5.188;2024-02-04T06:12:54;25.13;;;9.95;;
64907;SDS011;69061;52.236;5.188;2024-02-04T06:15:21;22.35;;;7.70;;
64907;SDS011;69061;52.236;5.188;2024-02-04T06:17:47;29.40;;;8.48;;
64907;SDS011;69061;52.236;5.188;2024-02-04T06:20:16;28.00;;;8.18;;
64907;SDS011;69061;52.236;5.188;2024-02-04T06:22:42;21.27;;;8.52;;
64907;SDS011;69061;52.236;5.188;2024-02-04T06:25:11;19.25;;;6.78;;
64907;SDS011;69061;52.236;5.188;2024-02-04T06:27:38;28.35;;;8.02;;
64907;SDS011;69061;52.236;5.188;2024-02-04T06:30:05;24.58;;;9.38;;
64907;SDS011;69061;52.236;5.188;2024-02-04T06:32:33;19.52;;;7.78;;
64907;SDS011;69061;52.236;5.188;2024-02-04T06:34:59;24.45;;;8.77;;
64907;SDS011;69061;52.236;5.188;2024-02-04T06:37:27;32.78;;;10.82;;
64907;SDS011;69061;52.236;5.188;2024-02-04T06:39:54;22.20;;;8.93;;
64907;SDS011;69061;52.236;5.188;2024-02-04T06:42:22;24.92;;;9.30;;
64907;SDS011;69061;52.236;5.188;2024-02-04T06:44:48;30.25;;;10.63;;
64907;SDS011;69061;52.236;5.188;2024-02-04T06:47:15;27.98;;;10.98;;
64907;SDS011;69061;52.236;5.188;2024-02-04T06:49:43;30.50;;;11.43;;
64907;SDS011;69061;52.236;5.188;2024-02-04T06:52:11;24.80;;;10.48;;
64907;SDS011;69061;52.236;5.188;2024-02-04T06:54:37;24.25;;;10.98;;
64907;SDS011;69061;52.236;5.188;2024-02-04T06:57:04;28.65;;;11.45;;
64907;SDS011;69061;52.236;5.188;2024-02-04T06:59:32;30.35;;;12.45;;
64907;SDS011;69061;52.236;5.188;2024-02-04T07:01:59;28.70;;;13.00;;
64907;SDS011;69061;52.236;5.188;2024-02-04T07:04:26;36.25;;;14.18;;
64907;SDS011;69061;52.236;5.188;2024-02-04T07:06:52;39.83;;;14.88;;
64907;SDS011;69061;52.236;5.188;2024-02-04T07:09:19;34.15;;;13.55;;
64907;SDS011;69061;52.236;5.188;2024-02-04T07:11:45;35.95;;;14.95;;
64907;SDS011;69061;52.236;5.188;2024-02-04T07:14:12;33.70;;;16.10;;
64907;SDS011;69061;52.236;5.188;2024-02-04T07:16:41;44.38;;;17.50;;
64907;SDS011;69061;52.236;5.188;2024-02-04T07:19:08;29.90;;;13.68;;
64907;SDS011;69061;52.236;5.188;2024-02-04T07:21:34;35.38;;;17.85;;
64907;SDS011;69061;52.236;5.188;2024-02-04T07:24:01;42.00;;;17.65;;
64907;SDS011;69061;52.236;5.188;2024-02-04T07:26:28;36.60;;;15.68;;
64907;SDS011;69061;52.236;5.188;2024-02-04T07:28:54;30.38;;;15.45;;
64907;SDS011;69061;52.236;5.188;2024-02-04T07:31:21;35.08;;;15.50;;
64907;SDS011;69061;52.236;5.188;2024-02-04T07:33:49;38.67;;;15.65;;
64907;SDS011;69061;52.236;5.188;2024-02-04T07:36:16;39.53;;;15.27;;
64907;SDS011;69061;52.236;5.188;2024-02-04T07:38:43;24.95;;;12.05;;
64907;SDS011;69061;52.236;5.188;2024-02-04T07:41:09;28.75;;;11.27;;
64907;SDS011;69061;52.236;5.188;2024-02-04T07:43:40;25.58;;;10.20;;
64907;SDS011;69061;52.236;5.188;2024-02-04T07:46:07;18.23;;;8.82;;
64907;SDS011;69061;52.236;5.188;2024-02-04T07:48:33;19.13;;;8.63;;
64907;SDS011;69061;52.236;5.188;2024-02-04T07:51:01;18.20;;;7.93;;
64907;SDS011;69061;52.236;5.188;2024-02-04T07:53:28;16.75;;;7.82;;
64907;SDS011;69061;52.236;5.188;2024-02-04T07:55:55;22.38;;;8.30;;
64907;SDS011;69061;52.236;5.188;2024-02-04T07:58:22;23.75;;;8.68;;
64907;SDS011;69061;52.236;5.188;2024-02-04T08:00:48;19.83;;;8.57;;
64907;SDS011;69061;52.236;5.188;2024-02-04T08:03:15;19.58;;;8.82;;
64907;SDS011;69061;52.236;5.188;2024-02-04T08:05:42;15.25;;;7.40;;
64907;SDS011;69061;52.236;5.188;2024-02-04T08:08:10;20.55;;;7.60;;
64907;SDS011;69061;52.236;5.188;2024-02-04T08:10:36;10.52;;;6.00;;
64907;SDS011;69061;52.236;5.188;2024-02-04T08:13:03;17.83;;;6.53;;
64907;SDS011;69061;52.236;5.188;2024-02-04T08:15:31;15.02;;;6.65;;
64907;SDS011;69061;52.236;5.188;2024-02-04T08:17:58;13.20;;;6.40;;
64907;SDS011;69061;52.236;5.188;2024-02-04T08:20:25;12.73;;;6.53;;
64907;SDS011;69061;52.236;5.188;2024-02-04T08:22:52;13.90;;;6.85;;
64907;SDS011;69061;52.236;5.188;2024-02-04T08:25:20;17.92;;;6.97;;
64907;SDS011;69061;52.236;5.188;2024-02-04T08:27:47;20.30;;;6.75;;
64907;SDS011;69061;52.236;5.188;2024-02-04T08:30:14;12.55;;;6.43;;
64907;SDS011;69061;52.236;5.188;2024-02-04T08:32:43;13.75;;;5.60;;
64907;SDS011;69061;52.236;5.188;2024-02-04T08:35:10;16.92;;;6.32;;
64907;SDS011;69061;52.236;5.188;2024-02-04T08:37:37;16.38;;;5.75;;
64907;SDS011;69061;52.236;5.188;2024-02-04T08:40:06;18.15;;;7.53;;
64907;SDS011;69061;52.236;5.188;2024-02-04T08:42:35;15.52;;;6.30;;
64907;SDS011;69061;52.236;5.188;2024-02-04T08:45:01;21.73;;;10.07;;
64907;SDS011;69061;52.236;5.188;2024-02-04T08:47:28;16.95;;;10.40;;
64907;SDS011;69061;52.236;5.188;2024-02-04T08:49:55;20.83;;;9.48;;
64907;SDS011;69061;52.236;5.188;2024-02-04T08:52:22;22.55;;;10.38;;
64907;SDS011;69061;52.236;5.188;2024-02-04T08:54:49;27.05;;;11.52;;
64907;SDS011;69061;52.236;5.188;2024-02-04T08:57:16;28.30;;;11.38;;
64907;SDS011;69061;52.236;5.188;2024-02-04T08:59:45;38.35;;;11.80;;
64907;SDS011;69061;52.236;5.188;2024-02-04T09:02:12;29.25;;;10.48;;
64907;SDS011;69061;52.236;5.188;2024-02-04T09:04:39;23.35;;;10.90;;
64907;SDS011;69061;52.236;5.188;2024-02-04T09:07:06;24.73;;;9.32;;
64907;SDS011;69061;52.236;5.188;2024-02-04T09:09:33;24.45;;;10.30;;
64907;SDS011;69061;52.236;5.188;2024-02-04T09:12:00;23.45;;;9.15;;
64907;SDS011;69061;52.236;5.188;2024-02-04T09:14:26;21.45;;;9.25;;
64907;SDS011;69061;52.236;5.188;2024-02-04T09:16:55;25.45;;;10.35;;
64907;SDS011;69061;52.236;5.188;2024-02-04T09:19:21;26.02;;;9.15;;
64907;SDS011;69061;52.236;5.188;2024-02-04T09:21:49;25.77;;;8.45;;
64907;SDS011;69061;52.236;5.188;2024-02-04T09:24:16;19.88;;;9.02;;
64907;SDS011;69061;52.236;5.188;2024-02-04T09:26:43;37.30;;;13.93;;
64907;SDS011;69061;52.236;5.188;2024-02-04T09:29:10;19.73;;;7.97;;
64907;SDS011;69061;52.236;5.188;2024-02-04T09:31:36;13.75;;;7.00;;
64907;SDS011;69061;52.236;5.188;2024-02-04T09:34:04;16.75;;;6.22;;
64907;SDS011;69061;52.236;5.188;2024-02-04T09:36:31;16.35;;;6.30;;
64907;SDS011;69061;52.236;5.188;2024-02-04T09:38:57;19.92;;;7.95;;
64907;SDS011;69061;52.236;5.188;2024-02-04T09:41:24;15.30;;;6.80;;
64907;SDS011;69061;52.236;5.188;2024-02-04T09:43:52;12.40;;;5.30;;
64907;SDS011;69061;52.236;5.188;2024-02-04T09:46:19;16.35;;;6.30;;
64907;SDS011;69061;52.236;5.188;2024-02-04T09:48:47;16.30;;;5.78;;
64907;SDS011;69061;52.236;5.188;2024-02-04T09:51:18;13.60;;;5.88;;
64907;SDS011;69061;52.236;5.188;2024-02-04T09:53:45;16.13;;;5.88;;
64907;SDS011;69061;52.236;5.188;2024-02-04T09:56:17;13.15;;;4.90;;
64907;SDS011;69061;52.236;5.188;2024-02-04T09:58:44;23.27;;;6.05;;
64907;SDS011;69061;52.236;5.188;2024-02-04T10:01:11;14.25;;;5.50;;
64907;SDS011;69061;52.236;5.188;2024-02-04T10:03:38;11.00;;;5.40;;
64907;SDS011;69061;52.236;5.188;2024-02-04T10:06:05;10.82;;;5.03;;
64907;SDS011;69061;52.236;5.188;2024-02-04T10:08:34;10.13;;;5.32;;
64907;SDS011;69061;52.236;5.188;2024-02-04T10:11:01;11.63;;;5.63;;
64907;SDS011;69061;52.236;5.188;2024-02-04T10:13:28;6.97;;;4.20;;
64907;SDS011;69061;52.236;5.188;2024-02-04T10:15:55;11.57;;;4.38;;
64907;SDS011;69061;52.236;5.188;2024-02-04T10:18:22;10.25;;;4.20;;
64907;SDS011;69061;52.236;5.188;2024-02-04T10:20:50;10.50;;;4.05;;
64907;SDS011;69061;52.236;5.188;2024-02-04T10:23:16;11.27;;;4.47;;
64907;SDS011;69061;52.236;5.188;2024-02-04T10:25:44;10.95;;;4.32;;
64907;SDS011;69061;52.236;5.188;2024-02-04T10:28:11;7.07;;;3.38;;
64907;SDS011;69061;52.236;5.188;2024-02-04T10:30:37;14.27;;;3.53;;
64907;SDS011;69061;52.236;5.188;2024-02-04T10:33:04;15.38;;;4.43;;
64907;SDS011;69061;52.236;5.188;2024-02-04T10:35:31;10.48;;;4.10;;
64907;SDS011;69061;52.236;5.188;2024-02-04T10:37:57;19.48;;;3.53;;
64907;SDS011;69061;52.236;5.188;2024-02-04T10:40:24;10.13;;;3.60;;
64907;SDS011;69061;52.236;5.188;2024-02-04T10:42:52;10.68;;;3.30;;
64907;SDS011;69061;52.236;5.188;2024-02-04T10:45:22;10.77;;;3.40;;
64907;SDS011;69061;52.236;5.188;2024-02-04T10:47:55;10.32;;;3.78;;
64907;SDS011;69061;52.236;5.188;2024-02-04T10:50:27;19.60;;;4.10;;
64907;SDS011;69061;52.236;5.188;2024-02-04T10:52:55;15.57;;;4.10;;
64907;SDS011;69061;52.236;5.188;2024-02-04T10:55:32;12.15;;;4.22;;
64907;SDS011;69061;52.236;5.188;2024-02-04T10:58:06;7.55;;;3.50;;
64907;SDS011;69061;52.236;5.188;2024-02-04T11:00:33;10.50;;;3.90;;
64907;SDS011;69061;52.236;5.188;2024-02-04T11:03:01;11.20;;;4.47;;
64907;SDS011;69061;52.236;5.188;2024-02-04T11:05:30;11.35;;;3.70;;
64907;SDS011;69061;52.236;5.188;2024-02-04T11:08:00;9.40;;;3.50;;
64907;SDS011;69061;52.236;5.188;2024-02-04T11:10:29;16.75;;;4.13;;
64907;SDS011;69061;52.236;5.188;2024-02-04T11:12:57;13.10;;;3.72;;
64907;SDS011;69061;52.236;5.188;2024-02-04T11:15:29;7.30;;;3.58;;
64907;SDS011;69061;52.236;5.188;2024-02-04T11:18:13;10.02;;;4.30;;
64907;SDS011;69061;52.236;5.188;2024-02-04T11:21:03;9.70;;;3.90;;
64907;SDS011;69061;52.236;5.188;2024-02-04T11:23:41;6.15;;;3.53;;
64907;SDS011;69061;52.236;5.188;2024-02-04T11:26:16;9.63;;;4.20;;
64907;SDS011;69061;52.236;5.188;2024-02-04T11:28:44;11.15;;;4.68;;
64907;SDS011;69061;52.236;5.188;2024-02-04T11:31:15;16.15;;;5.60;;
64907;SDS011;69061;52.236;5.188;2024-02-04T11:33:44;11.65;;;5.25;;
64907;SDS011;69061;52.236;5.188;2024-02-04T11:36:13;20.08;;;7.07;;
64907;SDS011;69061;52.236;5.188;2024-02-04T11:38:43;14.45;;;6.65;;
64907;SDS011;69061;52.236;5.188;2024-02-04T11:41:21;23.52;;;8.30;;
64907;SDS011;69061;52.236;5.188;2024-02-04T11:43:51;18.88;;;7.50;;
64907;SDS011;69061;52.236;5.188;2024-02-04T11:46:21;19.55;;;7.35;;
64907;SDS011;69061;52.236;5.188;2024-02-04T11:48:51;29.48;;;7.05;;
64907;SDS011;69061;52.236;5.188;2024-02-04T11:51:21;25.00;;;8.10;;
64907;SDS011;69061;52.236;5.188;2024-02-04T11:53:49;28.23;;;10.73;;
64907;SDS011;69061;52.236;5.188;2024-02-04T11:56:16;21.25;;;8.13;;
64907;SDS011;69061;52.236;5.188;2024-02-04T11:58:44;30.88;;;9.40;;
64907;SDS011;69061;52.236;5.188;2024-02-04T12:01:12;25.85;;;8.50;;
64907;SDS011;69061;52.236;5.188;2024-02-04T12:03:40;18.83;;;6.40;;
64907;SDS011;69061;52.236;5.188;2024-02-04T12:06:08;20.05;;;7.05;;
64907;SDS011;69061;52.236;5.188;2024-02-04T12:08:35;28.30;;;8.82;;
64907;SDS011;69061;52.236;5.188;2024-02-04T12:11:02;22.55;;;7.30;;
64907;SDS011;69061;52.236;5.188;2024-02-04T12:13:30;23.65;;;7.32;;
64907;SDS011;69061;52.236;5.188;2024-02-04T12:15:57;21.27;;;6.50;;
64907;SDS011;69061;52.236;5.188;2024-02-04T12:18:24;31.85;;;8.23;;
64907;SDS011;69061;52.236;5.188;2024-02-04T12:20:52;24.98;;;8.20;;
64907;SDS011;69061;52.236;5.188;2024-02-04T12:23:19;21.25;;;6.85;;
64907;SDS011;69061;52.236;5.188;2024-02-04T12:25:48;27.20;;;8.18;;
64907;SDS011;69061;52.236;5.188;2024-02-04T12:28:15;17.17;;;7.85;;
64907;SDS011;69061;52.236;5.188;2024-02-04T12:30:51;23.98;;;7.72;;
64907;SDS011;69061;52.236;5.188;2024-02-04T12:33:19;23.90;;;5.88;;
64907;SDS011;69061;52.236;5.188;2024-02-04T12:35:48;21.50;;;6.80;;
64907;SDS011;69061;52.236;5.188;2024-02-04T12:38:18;28.88;;;9.50;;
64907;SDS011;69061;52.236;5.188;2024-02-04T12:40:45;21.77;;;8.02;;
64907;SDS011;69061;52.236;5.188;2024-02-04T12:43:11;21.70;;;7.22;;
64907;SDS011;69061;52.236;5.188;2024-02-04T12:45:38;18.67;;;6.00;;
64907;SDS011;69061;52.236;5.188;2024-02-04T12:48:04;20.10;;;6.47;;
64907;SDS011;69061;52.236;5.188;2024-02-04T12:50:32;24.85;;;6.55;;
64907;SDS011;69061;52.236;5.188;2024-02-04T12:53:02;24.65;;;8.82;;
64907;SDS011;69061;52.236;5.188;2024-02-04T12:55:32;19.73;;;6.57;;
64907;SDS011;69061;52.236;5.188;2024-02-04T12:58:03;23.35;;;7.72;;
64907;SDS011;69061;52.236;5.188;2024-02-04T13:00:33;22.60;;;7.43;;
64907;SDS011;69061;52.236;5.188;2024-02-04T13:03:01;22.65;;;6.15;;
64907;SDS011;69061;52.236;5.188;2024-02-04T13:05:28;16.33;;;5.55;;
64907;SDS011;69061;52.236;5.188;2024-02-04T13:07:56;28.83;;;7.45;;
64907;SDS011;69061;52.236;5.188;2024-02-04T13:10:27;18.08;;;6.07;;
64907;SDS011;69061;52.236;5.188;2024-02-04T13:13:00;24.52;;;7.68;;
64907;SDS011;69061;52.236;5.188;2024-02-04T13:15:28;22.20;;;7.47;;
64907;SDS011;69061;52.236;5.188;2024-02-04T13:17:55;20.20;;;6.93;;
64907;SDS011;69061;52.236;5.188;2024-02-04T13:20:22;19.02;;;7.47;;
64907;SDS011;69061;52.236;5.188;2024-02-04T13:22:49;26.63;;;8.13;;
64907;SDS011;69061;52.236;5.188;2024-02-04T13:25:16;18.77;;;5.68;;
64907;SDS011;69061;52.236;5.188;2024-02-04T13:27:42;16.95;;;6.97;;
64907;SDS011;69061;52.236;5.188;2024-02-04T13:30:11;23.42;;;7.88;;
64907;SDS011;69061;52.236;5.188;2024-02-04T13:32:39;18.25;;;6.78;;
64907;SDS011;69061;52.236;5.188;2024-02-04T13:35:07;16.08;;;6.43;;
64907;SDS011;69061;52.236;5.188;2024-02-04T13:37:34;19.08;;;6.20;;
64907;SDS011;69061;52.236;5.188;2024-02-04T13:40:02;23.10;;;7.40;;
64907;SDS011;69061;52.236;5.188;2024-02-04T13:42:29;19.50;;;7.30;;
64907;SDS011;69061;52.236;5.188;2024-02-04T13:44:59;19.83;;;6.45;;
64907;SDS011;69061;52.236;5.188;2024-02-04T13:47:29;21.48;;;5.88;;
64907;SDS011;69061;52.236;5.188;2024-02-04T13:49:55;20.92;;;7.28;;
64907;SDS011;69061;52.236;5.188;2024-02-04T13:52:22;20.75;;;8.05;;
64907;SDS011;69061;52.236;5.188;2024-02-04T13:54:49;14.90;;;6.60;;
64907;SDS011;69061;52.236;5.188;2024-02-04T13:57:15;24.60;;;6.05;;
64907;SDS011;69061;52.236;5.188;2024-02-04T13:59:42;16.95;;;7.25;;
64907;SDS011;69061;52.236;5.188;2024-02-04T14:02:09;18.17;;;5.07;;
64907;SDS011;69061;52.236;5.188;2024-02-04T14:04:37;16.40;;;5.68;;
64907;SDS011;69061;52.236;5.188;2024-02-04T14:07:04;19.15;;;6.15;;
64907;SDS011;69061;52.236;5.188;2024-02-04T14:09:30;17.98;;;5.55;;
64907;SDS011;69061;52.236;5.188;2024-02-04T14:11:57;18.90;;;6.50;;
64907;SDS011;69061;52.236;5.188;2024-02-04T14:14:24;20.40;;;6.47;;
64907;SDS011;69061;52.236;5.188;2024-02-04T14:16:51;12.32;;;5.88;;
64907;SDS011;69061;52.236;5.188;2024-02-04T14:19:18;14.70;;;5.53;;
64907;SDS011;69061;52.236;5.188;2024-02-04T14:21:46;20.33;;;5.53;;
64907;SDS011;69061;52.236;5.188;2024-02-04T14:24:13;22.63;;;6.20;;
64907;SDS011;69061;52.236;5.188;2024-02-04T14:26:43;19.50;;;5.43;;
64907;SDS011;69061;52.236;5.188;2024-02-04T14:29:10;26.10;;;5.60;;
64907;SDS011;69061;52.236;5.188;2024-02-04T14:31:37;14.43;;;5.35;;
64907;SDS011;69061;52.236;5.188;2024-02-04T14:34:03;23.30;;;5.90;;